createdAt,value
2023-07-25T00:00:10.717Z,989.01
2023-07-25T00:01:10.762Z,989.05
2023-07-25T00:02:10.726Z,989.03
2023-07-25T00:03:10.691Z,989.02
2023-07-25T00:04:10.693Z,989.09
2023-07-25T00:05:10.666Z,989.02
2023-07-25T00:06:10.625Z,989.07
2023-07-25T00:07:10.630Z,989.02
2023-07-25T00:08:10.600Z,989.03
2023-07-25T00:09:10.602Z,989.00
2023-07-25T00:10:10.576Z,989.02
2023-07-25T00:11:10.594Z,988.99
2023-07-25T00:12:10.554Z,989.02
2023-07-25T00:13:10.544Z,989.04
2023-07-25T00:14:10.533Z,989.03
2023-07-25T00:15:10.548Z,989.10
2023-07-25T00:16:10.530Z,988.99
2023-07-25T00:17:10.491Z,989.09
2023-07-25T00:18:10.459Z,989.07
2023-07-25T00:19:10.488Z,989.13
2023-07-25T00:20:10.451Z,989.18
2023-07-25T00:21:10.463Z,989.16
2023-07-25T00:22:10.411Z,989.14
2023-07-25T00:23:10.505Z,989.13
2023-07-25T00:24:10.433Z,989.20
2023-07-25T00:25:10.391Z,989.15
2023-07-25T00:26:10.369Z,989.16
2023-07-25T00:27:10.374Z,989.19
2023-07-25T00:28:10.339Z,989.20
2023-07-25T00:29:10.449Z,989.21
2023-07-25T00:30:10.310Z,989.20
2023-07-25T00:31:10.358Z,989.22
2023-07-25T00:32:10.380Z,989.24
2023-07-25T00:33:10.535Z,989.25
2023-07-25T00:34:10.283Z,989.26
2023-07-25T00:35:10.261Z,989.23
2023-07-25T00:36:10.256Z,989.27
2023-07-25T00:37:10.216Z,989.23
2023-07-25T00:38:10.221Z,989.24
2023-07-25T00:39:10.238Z,989.23
2023-07-25T00:40:10.192Z,989.25
2023-07-25T00:41:10.766Z,989.27
2023-07-25T00:42:11.257Z,989.26
2023-07-25T00:43:11.922Z,989.27
2023-07-25T00:44:11.252Z,989.29
2023-07-25T00:45:12.092Z,989.26
2023-07-25T00:46:11.582Z,989.26
2023-07-25T00:47:11.814Z,989.30
2023-07-25T00:48:12.323Z,989.33
2023-07-25T00:49:11.761Z,989.27
2023-07-25T00:50:11.420Z,989.27
2023-07-25T00:51:11.861Z,989.29
2023-07-25T00:52:11.065Z,989.18
2023-07-25T00:53:11.376Z,989.18
2023-07-25T00:54:11.900Z,989.21
2023-07-25T00:55:11.780Z,989.25
2023-07-25T00:56:11.445Z,989.20
2023-07-25T00:57:11.774Z,989.23
2023-07-25T00:58:11.034Z,989.25
2023-07-25T00:59:10.958Z,989.25
2023-07-25T01:00:11.737Z,989.22
2023-07-25T01:01:12.343Z,989.27
2023-07-25T01:02:12.141Z,989.20
2023-07-25T01:03:11.297Z,989.23
2023-07-25T01:04:09.849Z,989.26
2023-07-25T01:05:09.851Z,989.30
2023-07-25T01:06:09.860Z,989.24
2023-07-25T01:07:11.581Z,989.30
2023-07-25T01:08:09.801Z,989.31
2023-07-25T01:09:09.789Z,989.31
2023-07-25T01:10:09.815Z,989.37
2023-07-25T01:11:09.788Z,989.40
2023-07-25T01:12:09.769Z,989.38
2023-07-25T01:13:09.762Z,989.42
2023-07-25T01:14:09.717Z,989.45
2023-07-25T01:15:09.727Z,989.44
2023-07-25T01:16:09.742Z,989.40
2023-07-25T01:17:09.693Z,989.44
2023-07-25T01:18:09.680Z,989.43
2023-07-25T01:19:09.663Z,989.40
2023-07-25T01:20:09.815Z,989.37
2023-07-25T01:21:09.642Z,989.45
2023-07-25T01:22:09.633Z,989.45
2023-07-25T01:23:09.602Z,989.48
2023-07-25T01:24:09.618Z,989.44
2023-07-25T01:25:09.598Z,989.46
2023-07-25T01:26:09.576Z,989.44
2023-07-25T01:27:09.556Z,989.55
2023-07-25T01:28:09.565Z,989.51
2023-07-25T01:29:09.539Z,989.58
2023-07-25T01:30:09.522Z,989.52
2023-07-25T01:31:09.505Z,989.55
2023-07-25T01:32:09.501Z,989.56
2023-07-25T01:33:09.486Z,989.54
2023-07-25T01:34:09.510Z,989.57
2023-07-25T01:35:09.468Z,989.60
2023-07-25T01:36:09.460Z,989.63
2023-07-25T01:37:09.445Z,989.55
2023-07-25T01:38:09.442Z,989.52
2023-07-25T01:39:09.444Z,989.56
2023-07-25T01:40:09.393Z,989.52
2023-07-25T01:41:09.418Z,989.50
2023-07-25T01:42:09.369Z,989.56
2023-07-25T01:43:09.366Z,989.60
2023-07-25T01:44:09.354Z,989.60
2023-07-25T01:45:09.327Z,989.58
2023-07-25T01:46:09.326Z,989.59
2023-07-25T01:47:09.296Z,989.59
2023-07-25T01:48:09.296Z,989.61
2023-07-25T01:49:09.260Z,989.56
2023-07-25T01:50:09.291Z,989.53
2023-07-25T01:51:09.243Z,989.48
2023-07-25T01:52:09.253Z,989.49
2023-07-25T01:53:09.239Z,989.55
2023-07-25T01:54:09.218Z,989.54
2023-07-25T01:55:09.185Z,989.56
2023-07-25T01:56:09.303Z,989.52
2023-07-25T01:57:09.204Z,989.45
2023-07-25T01:58:09.173Z,989.42
2023-07-25T01:59:09.149Z,989.39
2023-07-25T02:00:09.128Z,989.38
2023-07-25T02:01:09.220Z,989.35
2023-07-25T02:02:09.137Z,989.32
2023-07-25T02:03:09.133Z,989.37
2023-07-25T02:04:09.083Z,989.30
2023-07-25T02:05:09.075Z,989.31
2023-07-25T02:06:09.073Z,989.35
2023-07-25T02:07:09.044Z,989.34
2023-07-25T02:08:09.033Z,989.31
2023-07-25T02:09:09.008Z,989.32
2023-07-25T02:10:09.018Z,989.31
2023-07-25T02:11:08.994Z,989.32
2023-07-25T02:12:08.970Z,989.28
2023-07-25T02:13:09.212Z,989.30
2023-07-25T02:14:08.958Z,989.29
2023-07-25T02:15:08.952Z,989.34
2023-07-25T02:16:08.946Z,989.33
2023-07-25T02:17:08.992Z,989.31
2023-07-25T02:18:08.913Z,989.30
2023-07-25T02:19:08.892Z,989.27
2023-07-25T02:20:08.904Z,989.27
2023-07-25T02:21:08.850Z,989.26
2023-07-25T02:22:08.854Z,989.29
2023-07-25T02:23:08.913Z,989.28
2023-07-25T02:24:08.826Z,989.31
2023-07-25T02:25:08.837Z,989.32
2023-07-25T02:26:08.802Z,989.35
2023-07-25T02:27:08.785Z,989.29
2023-07-25T02:28:08.857Z,989.33
2023-07-25T02:29:08.756Z,989.37
2023-07-25T02:30:08.767Z,989.36
2023-07-25T02:31:08.783Z,989.36
2023-07-25T02:32:08.708Z,989.38
2023-07-25T02:33:08.718Z,989.36
2023-07-25T02:34:08.715Z,989.31
2023-07-25T02:35:08.700Z,989.33
2023-07-25T02:36:08.666Z,989.33
2023-07-25T02:37:08.875Z,989.24
2023-07-25T02:38:08.656Z,989.25
2023-07-25T02:39:08.625Z,989.28
2023-07-25T02:40:08.611Z,989.26
2023-07-25T02:41:08.641Z,989.30
2023-07-25T02:42:08.594Z,989.29
2023-07-25T02:43:08.589Z,989.33
2023-07-25T02:44:08.612Z,989.28
2023-07-25T02:45:08.543Z,989.31
2023-07-25T02:46:08.592Z,989.30
2023-07-25T02:47:08.519Z,989.35
2023-07-25T02:48:08.510Z,989.34
2023-07-25T02:49:08.564Z,989.27
2023-07-25T02:50:08.487Z,989.30
2023-07-25T02:51:08.487Z,989.34
2023-07-25T02:52:08.453Z,989.35
2023-07-25T02:53:08.444Z,989.33
2023-07-25T02:54:08.431Z,989.32
2023-07-25T02:55:08.448Z,989.38
2023-07-25T02:56:08.407Z,989.39
2023-07-25T02:57:08.403Z,989.37
2023-07-25T02:58:08.375Z,989.43
2023-07-25T02:59:08.357Z,989.38
2023-07-25T03:00:08.381Z,989.41
2023-07-25T03:01:08.365Z,989.46
2023-07-25T03:02:08.421Z,989.41
2023-07-25T03:03:08.336Z,989.39
2023-07-25T03:04:08.300Z,989.46
2023-07-25T03:05:08.287Z,989.48
2023-07-25T03:06:08.286Z,989.49
2023-07-25T03:07:08.284Z,989.43
2023-07-25T03:08:08.242Z,989.43
2023-07-25T03:09:08.215Z,989.47
2023-07-25T03:10:08.220Z,989.44
2023-07-25T03:11:08.228Z,989.43
2023-07-25T03:12:08.201Z,989.41
2023-07-25T03:13:08.170Z,989.45
2023-07-25T03:14:08.169Z,989.48
2023-07-25T03:15:08.143Z,989.46
2023-07-25T03:16:08.212Z,989.45
2023-07-25T03:17:08.145Z,989.45
2023-07-25T03:18:08.162Z,989.46
2023-07-25T03:19:08.103Z,989.48
2023-07-25T03:20:08.114Z,989.49
2023-07-25T03:21:08.113Z,989.52
2023-07-25T03:22:08.076Z,989.51
2023-07-25T03:23:08.164Z,989.51
2023-07-25T03:24:08.039Z,989.52
2023-07-25T03:25:08.057Z,989.49
2023-07-25T03:26:08.018Z,989.50
2023-07-25T03:27:07.994Z,989.47
2023-07-25T03:28:07.986Z,989.49
2023-07-25T03:29:07.961Z,989.44
2023-07-25T03:30:07.975Z,989.48
2023-07-25T03:31:08.051Z,989.53
2023-07-25T03:32:07.935Z,989.52
2023-07-25T03:33:07.937Z,989.47
2023-07-25T03:34:07.928Z,989.54
2023-07-25T03:35:07.887Z,989.54
2023-07-25T03:36:07.875Z,989.56
2023-07-25T03:37:07.869Z,989.59
2023-07-25T03:38:08.095Z,989.61
2023-07-25T03:39:07.859Z,989.65
2023-07-25T03:40:07.830Z,989.62
2023-07-25T03:41:07.810Z,989.63
2023-07-25T03:42:07.818Z,989.70
2023-07-25T03:43:07.781Z,989.64
2023-07-25T03:44:07.780Z,989.59
2023-07-25T03:45:07.754Z,989.55
2023-07-25T03:46:07.800Z,989.52
2023-07-25T03:47:07.738Z,989.52
2023-07-25T03:48:07.749Z,989.45
2023-07-25T03:49:07.743Z,989.43
2023-07-25T03:50:07.675Z,989.46
2023-07-25T03:51:07.663Z,989.42
2023-07-25T03:52:07.675Z,989.43
2023-07-25T03:53:08.033Z,989.42
2023-07-25T03:54:07.637Z,989.42
2023-07-25T03:55:07.630Z,989.39
2023-07-25T03:56:07.642Z,989.40
2023-07-25T03:57:07.596Z,989.38
2023-07-25T03:58:07.614Z,989.36
2023-07-25T03:59:07.595Z,989.31
2023-07-25T04:00:07.679Z,989.37
2023-07-25T04:01:07.571Z,989.39
2023-07-25T04:02:07.585Z,989.36
2023-07-25T04:03:14.957Z,989.29
2023-07-25T04:04:08.609Z,989.27
2023-07-25T04:05:07.713Z,989.28
2023-07-25T04:06:08.641Z,989.20
2023-07-25T04:07:10.123Z,989.19
2023-07-25T04:08:07.462Z,989.21
2023-07-25T04:09:08.934Z,989.18
2023-07-25T04:10:11.816Z,989.17
2023-07-25T04:11:13.648Z,989.13
2023-07-25T04:12:14.045Z,989.12
2023-07-25T04:13:10.409Z,989.07
2023-07-25T04:14:09.851Z,989.06
2023-07-25T04:15:14.383Z,989.05
2023-07-25T04:16:13.149Z,989.04
2023-07-25T04:17:07.343Z,989.07
2023-07-25T04:18:07.325Z,989.11
2023-07-25T04:19:07.318Z,989.09
2023-07-25T04:20:07.322Z,989.08
2023-07-25T04:21:07.322Z,989.10
2023-07-25T04:22:07.286Z,989.10
2023-07-25T04:23:07.259Z,989.04
2023-07-25T04:24:07.261Z,989.02
2023-07-25T04:25:07.247Z,988.96
2023-07-25T04:26:07.244Z,988.95
2023-07-25T04:27:07.206Z,988.93
2023-07-25T04:28:07.199Z,988.91
2023-07-25T04:29:07.372Z,988.95
2023-07-25T04:30:07.181Z,988.92
2023-07-25T04:31:07.158Z,988.92
2023-07-25T04:32:07.140Z,988.96
2023-07-25T04:33:07.135Z,988.84
2023-07-25T04:34:07.145Z,988.84
2023-07-25T04:35:07.116Z,988.86
2023-07-25T04:36:07.221Z,988.82
2023-07-25T04:37:07.083Z,988.83
2023-07-25T04:38:07.090Z,988.89
2023-07-25T04:39:07.066Z,989.01
2023-07-25T04:40:07.059Z,988.98
2023-07-25T04:41:07.021Z,989.05
2023-07-25T04:42:07.027Z,989.09
2023-07-25T04:43:06.998Z,989.19
2023-07-25T04:44:07.237Z,989.23
2023-07-25T04:45:06.985Z,989.32
2023-07-25T04:46:07.044Z,989.36
2023-07-25T04:47:06.952Z,989.38
2023-07-25T04:48:06.977Z,989.42
2023-07-25T04:49:06.990Z,989.55
2023-07-25T04:50:06.909Z,989.59
2023-07-25T04:51:06.900Z,989.68
2023-07-25T04:52:06.891Z,989.72
2023-07-25T04:53:06.882Z,989.81
2023-07-25T04:54:06.858Z,989.89
2023-07-25T04:55:06.834Z,989.85
2023-07-25T04:56:06.830Z,989.87
2023-07-25T04:57:06.865Z,989.90
2023-07-25T04:58:06.821Z,989.91
2023-07-25T04:59:06.792Z,989.89
2023-07-25T05:00:06.769Z,989.89
2023-07-25T05:01:06.848Z,989.88
2023-07-25T05:02:06.763Z,989.89
2023-07-25T05:03:06.875Z,989.85
2023-07-25T05:04:06.747Z,989.84
2023-07-25T05:05:06.708Z,989.85
2023-07-25T05:06:06.704Z,989.87
2023-07-25T05:07:06.712Z,989.87
2023-07-25T05:08:06.687Z,989.91
2023-07-25T05:09:06.803Z,989.96
2023-07-25T05:10:06.642Z,989.98
2023-07-25T05:11:06.660Z,989.99
2023-07-25T05:12:06.646Z,990.03
2023-07-25T05:13:06.599Z,990.05
2023-07-25T05:14:06.672Z,990.03
2023-07-25T05:15:06.583Z,990.01
2023-07-25T05:16:06.719Z,989.99
2023-07-25T05:17:06.561Z,989.95
2023-07-25T05:18:06.591Z,989.93
2023-07-25T05:19:06.531Z,989.89
2023-07-25T05:20:06.542Z,989.95
2023-07-25T05:21:06.542Z,989.89
2023-07-25T05:22:06.505Z,989.94
2023-07-25T05:23:06.488Z,989.97
2023-07-25T05:24:06.474Z,989.99
2023-07-25T05:25:06.498Z,990.02
2023-07-25T05:26:06.435Z,990.04
2023-07-25T05:27:06.421Z,990.06
2023-07-25T05:28:06.410Z,990.06
2023-07-25T05:29:06.515Z,990.05
2023-07-25T05:30:06.400Z,990.05
2023-07-25T05:31:06.386Z,990.06
2023-07-25T05:32:06.360Z,990.10
2023-07-25T05:33:06.383Z,990.11
2023-07-25T05:34:06.339Z,990.09
2023-07-25T05:35:06.339Z,990.13
2023-07-25T05:36:06.340Z,990.11
2023-07-25T05:37:06.310Z,990.05
2023-07-25T05:38:06.285Z,990.07
2023-07-25T05:39:06.292Z,990.10
2023-07-25T05:40:06.263Z,990.10
2023-07-25T05:41:06.257Z,990.13
2023-07-25T05:42:06.245Z,990.10
2023-07-25T05:43:06.223Z,990.15
2023-07-25T05:44:06.218Z,990.11
2023-07-25T05:45:06.193Z,990.13
2023-07-25T05:46:06.352Z,990.12
2023-07-25T05:47:06.173Z,990.18
2023-07-25T05:48:06.177Z,990.18
2023-07-25T05:49:08.318Z,990.17
2023-07-25T05:50:06.113Z,990.17
2023-07-25T05:51:06.133Z,990.15
2023-07-25T05:52:06.082Z,990.16
2023-07-25T05:53:06.232Z,990.21
2023-07-25T05:54:06.071Z,990.19
2023-07-25T05:55:06.058Z,990.21
2023-07-25T05:56:06.037Z,990.24
2023-07-25T05:57:06.034Z,990.26
2023-07-25T05:58:06.174Z,990.29
2023-07-25T05:59:06.013Z,990.32
2023-07-25T06:00:05.979Z,990.31
2023-07-25T06:01:06.001Z,990.36
2023-07-25T06:02:05.966Z,990.39
2023-07-25T06:03:06.095Z,990.39
2023-07-25T06:04:05.932Z,990.37
2023-07-25T06:05:05.918Z,990.35
2023-07-25T06:06:05.903Z,990.36
2023-07-25T06:07:05.910Z,990.25
2023-07-25T06:08:05.887Z,990.28
2023-07-25T06:09:05.875Z,990.22
2023-07-25T06:10:05.932Z,990.20
2023-07-25T06:11:05.843Z,990.20
2023-07-25T06:12:05.835Z,990.15
2023-07-25T06:13:05.880Z,990.14
2023-07-25T06:14:08.269Z,990.07
2023-07-25T06:15:05.932Z,990.07
2023-07-25T06:16:05.788Z,990.07
2023-07-25T06:17:05.845Z,990.09
2023-07-25T06:18:06.024Z,990.11
2023-07-25T06:19:05.734Z,990.05
2023-07-25T06:20:05.715Z,990.04
2023-07-25T06:21:05.746Z,990.09
2023-07-25T06:22:05.703Z,990.04
2023-07-25T06:23:05.716Z,990.03
2023-07-25T06:24:05.666Z,990.07
2023-07-25T06:25:05.674Z,990.06
2023-07-25T06:26:05.646Z,990.05
2023-07-25T06:27:05.743Z,990.07
2023-07-25T06:28:05.608Z,990.07
2023-07-25T06:29:05.633Z,990.07
2023-07-25T06:30:05.600Z,990.00
2023-07-25T06:31:05.673Z,989.90
2023-07-25T06:32:05.635Z,989.88
2023-07-25T06:33:05.600Z,989.88
2023-07-25T06:34:05.631Z,989.87
2023-07-25T06:35:05.540Z,989.91
2023-07-25T06:36:05.524Z,989.87
2023-07-25T06:37:05.518Z,989.85
2023-07-25T06:38:05.480Z,989.84
2023-07-25T06:39:05.623Z,989.80
2023-07-25T06:40:05.520Z,989.76
2023-07-25T06:41:05.485Z,989.77
2023-07-25T06:42:05.461Z,989.79
2023-07-25T06:43:05.428Z,989.73
2023-07-25T06:44:05.453Z,989.70
2023-07-25T06:45:05.427Z,989.75
2023-07-25T06:46:05.386Z,989.73
2023-07-25T06:47:05.437Z,989.68
2023-07-25T06:48:05.444Z,989.68
2023-07-25T06:49:06.076Z,989.72
2023-07-25T06:50:05.321Z,989.65
2023-07-25T06:51:05.536Z,989.67
2023-07-25T06:52:05.307Z,989.62
2023-07-25T06:53:05.308Z,989.57
2023-07-25T06:54:05.362Z,989.62
2023-07-25T06:55:05.293Z,989.61
2023-07-25T06:56:05.265Z,989.62
2023-07-25T06:57:05.233Z,989.60
2023-07-25T06:58:05.238Z,989.58
2023-07-25T06:59:05.352Z,989.62
2023-07-25T07:00:05.202Z,989.65
2023-07-25T07:01:05.196Z,989.59
2023-07-25T07:02:05.194Z,989.62
2023-07-25T07:03:05.276Z,989.62
2023-07-25T07:04:05.148Z,989.61
2023-07-25T07:05:19.300Z,989.62
2023-07-25T07:06:06.141Z,989.54
2023-07-25T07:07:05.102Z,989.52
2023-07-25T07:08:05.118Z,989.51
2023-07-25T07:09:05.076Z,989.48
2023-07-25T07:10:05.074Z,989.46
2023-07-25T07:11:05.158Z,989.43
2023-07-25T07:12:05.064Z,989.41
2023-07-25T07:13:05.011Z,989.35
2023-07-25T07:14:05.005Z,989.37
2023-07-25T07:15:05.029Z,989.37
2023-07-25T07:16:05.329Z,989.37
2023-07-25T07:17:05.007Z,989.36
2023-07-25T07:18:05.003Z,989.39
2023-07-25T07:19:04.970Z,989.44
2023-07-25T07:20:04.942Z,989.46
2023-07-25T07:21:05.198Z,989.46
2023-07-25T07:22:04.919Z,989.48
2023-07-25T07:23:04.888Z,989.49
2023-07-25T07:24:04.897Z,989.48
2023-07-25T07:25:04.901Z,989.53
2023-07-25T07:26:04.872Z,989.50
2023-07-25T07:27:04.840Z,989.50
2023-07-25T07:28:04.816Z,989.53
2023-07-25T07:29:04.824Z,989.50
2023-07-25T07:30:04.807Z,989.53
2023-07-25T07:31:04.960Z,989.51
2023-07-25T07:32:04.781Z,989.47
2023-07-25T07:33:04.779Z,989.49
2023-07-25T07:34:04.787Z,989.49
2023-07-25T07:35:04.758Z,989.47
2023-07-25T07:36:04.739Z,989.47
2023-07-25T07:37:04.748Z,989.45
2023-07-25T07:38:04.749Z,989.46
2023-07-25T07:39:04.697Z,989.42
2023-07-25T07:40:04.700Z,989.42
2023-07-25T07:41:04.671Z,989.44
2023-07-25T07:42:04.638Z,989.38
2023-07-25T07:43:04.630Z,989.41
2023-07-25T07:44:04.631Z,989.37
2023-07-25T07:45:04.618Z,989.36
2023-07-25T07:46:04.653Z,989.34
2023-07-25T07:47:04.601Z,989.32
2023-07-25T07:48:04.634Z,989.32
2023-07-25T07:49:04.566Z,989.29
2023-07-25T07:50:04.563Z,989.26
2023-07-25T07:51:04.521Z,989.28
2023-07-25T07:52:15.611Z,989.29
2023-07-25T07:53:05.508Z,989.30
2023-07-25T07:54:04.503Z,989.33
2023-07-25T07:55:04.497Z,989.33
2023-07-25T07:56:04.458Z,989.32
2023-07-25T07:57:04.508Z,989.33
2023-07-25T07:58:04.480Z,989.27
2023-07-25T07:59:04.469Z,989.27
2023-07-25T08:00:04.415Z,989.23
2023-07-25T08:01:04.430Z,989.24
2023-07-25T08:02:04.447Z,989.23
2023-07-25T08:03:04.495Z,989.24
2023-07-25T08:04:04.368Z,989.28
2023-07-25T08:05:04.401Z,989.29
2023-07-25T08:06:04.322Z,989.26
2023-07-25T08:07:04.332Z,989.28
2023-07-25T08:08:04.347Z,989.24
2023-07-25T08:09:04.288Z,989.23
2023-07-25T08:10:04.282Z,989.24
2023-07-25T08:11:04.294Z,989.23
2023-07-25T08:12:04.286Z,989.18
2023-07-25T08:13:04.272Z,989.15
2023-07-25T08:14:04.228Z,989.11
2023-07-25T08:15:04.218Z,989.14
2023-07-25T08:16:04.279Z,989.10
2023-07-25T08:17:04.207Z,989.12
2023-07-25T08:18:04.197Z,989.14
2023-07-25T08:19:04.184Z,989.20
2023-07-25T08:20:04.200Z,989.23
2023-07-25T08:21:04.136Z,989.24
2023-07-25T08:22:04.138Z,989.27
2023-07-25T08:23:04.116Z,989.30
2023-07-25T08:24:04.119Z,989.22
2023-07-25T08:25:04.083Z,989.25
2023-07-25T08:26:04.109Z,989.23
2023-07-25T08:27:04.074Z,989.27
2023-07-25T08:28:04.047Z,989.27
2023-07-25T08:29:04.068Z,989.28
2023-07-25T08:30:04.074Z,989.31
2023-07-25T08:31:04.038Z,989.37
2023-07-25T08:32:04.007Z,989.40
2023-07-25T08:33:04.037Z,989.38
2023-07-25T08:34:03.976Z,989.39
2023-07-25T08:35:04.036Z,989.42
2023-07-25T08:36:03.958Z,989.42
2023-07-25T08:37:03.938Z,989.47
2023-07-25T08:38:03.929Z,989.46
2023-07-25T08:39:03.937Z,989.46
2023-07-25T08:40:03.907Z,989.52
2023-07-25T08:41:03.907Z,989.55
2023-07-25T08:42:03.861Z,989.57
2023-07-25T08:43:03.916Z,989.55
2023-07-25T08:44:03.831Z,989.54
2023-07-25T08:45:03.858Z,989.49
2023-07-25T08:46:03.822Z,989.52
2023-07-25T08:47:03.852Z,989.48
2023-07-25T08:48:03.959Z,989.49
2023-07-25T08:49:03.841Z,989.57
2023-07-25T08:50:03.780Z,989.57
2023-07-25T08:51:03.785Z,989.61
2023-07-25T08:52:03.767Z,989.61
2023-07-25T08:53:03.724Z,989.57
2023-07-25T08:54:03.741Z,989.59
2023-07-25T08:55:03.716Z,989.64
2023-07-25T08:56:03.675Z,989.65
2023-07-25T08:57:03.782Z,989.60
2023-07-25T08:58:03.655Z,989.63
2023-07-25T08:59:03.670Z,989.58
2023-07-25T09:00:03.650Z,989.54
2023-07-25T09:01:03.620Z,989.52
2023-07-25T09:02:03.750Z,989.56
2023-07-25T09:03:03.674Z,989.52
2023-07-25T09:04:03.602Z,989.51
2023-07-25T09:05:03.605Z,989.51
2023-07-25T09:06:03.562Z,989.55
2023-07-25T09:07:03.543Z,989.55
2023-07-25T09:08:03.531Z,989.58
2023-07-25T09:09:03.500Z,989.55
2023-07-25T09:10:03.531Z,989.54
2023-07-25T09:11:03.483Z,989.54
2023-07-25T09:12:03.477Z,989.58
2023-07-25T09:13:03.525Z,989.50
2023-07-25T09:14:03.465Z,989.53
2023-07-25T09:15:03.453Z,989.52
2023-07-25T09:16:03.474Z,989.52
2023-07-25T09:17:03.468Z,989.53
2023-07-25T09:18:03.452Z,989.53
2023-07-25T09:19:03.381Z,989.56
2023-07-25T09:20:03.372Z,989.59
2023-07-25T09:21:03.361Z,989.57
2023-07-25T09:22:03.365Z,989.53
2023-07-25T09:23:03.329Z,989.54
2023-07-25T09:24:03.313Z,989.51
2023-07-25T09:25:03.314Z,989.51
2023-07-25T09:26:03.331Z,989.52
2023-07-25T09:27:03.308Z,989.54
2023-07-25T09:28:03.296Z,989.50
2023-07-25T09:29:03.261Z,989.54
2023-07-25T09:30:03.363Z,989.52
2023-07-25T09:31:03.264Z,989.54
2023-07-25T09:32:03.348Z,989.54
2023-07-25T09:33:03.244Z,989.51
2023-07-25T09:34:03.193Z,989.50
2023-07-25T09:35:03.169Z,989.49
2023-07-25T09:36:03.193Z,989.47
2023-07-25T09:37:03.146Z,989.42
2023-07-25T09:38:03.301Z,989.42
2023-07-25T09:39:03.113Z,989.45
2023-07-25T09:40:03.137Z,989.45
2023-07-25T09:41:03.108Z,989.40
2023-07-25T09:42:03.095Z,989.44
2023-07-25T09:43:03.064Z,989.44
2023-07-25T09:44:03.084Z,989.43
2023-07-25T09:45:03.057Z,989.55
2023-07-25T09:46:03.044Z,989.54
2023-07-25T09:47:03.016Z,989.56
2023-07-25T09:48:03.086Z,989.46
2023-07-25T09:49:03.000Z,989.47
2023-07-25T09:50:02.984Z,989.46
2023-07-25T09:51:02.957Z,989.38
2023-07-25T09:52:02.952Z,989.40
2023-07-25T09:53:02.942Z,989.39
2023-07-25T09:54:02.957Z,989.35
2023-07-25T09:55:02.928Z,989.40
2023-07-25T09:56:02.908Z,989.36
2023-07-25T09:57:02.881Z,989.41
2023-07-25T09:58:02.880Z,989.37
2023-07-25T09:59:07.227Z,989.38
2023-07-25T10:00:02.846Z,989.32
2023-07-25T10:01:02.888Z,989.33
2023-07-25T10:02:02.835Z,989.33
2023-07-25T10:03:02.841Z,989.30
2023-07-25T10:04:02.830Z,989.28
2023-07-25T10:05:02.782Z,989.30
2023-07-25T10:06:02.986Z,989.26
2023-07-25T10:07:02.762Z,989.22
2023-07-25T10:08:02.749Z,989.25
2023-07-25T10:09:02.746Z,989.25
2023-07-25T10:10:02.731Z,989.25
2023-07-25T10:11:02.721Z,989.29
2023-07-25T10:12:02.812Z,989.28
2023-07-25T10:13:02.686Z,989.27
2023-07-25T10:14:02.680Z,989.25
2023-07-25T10:15:02.667Z,989.21
2023-07-25T10:16:02.664Z,989.23
2023-07-25T10:17:02.670Z,989.17
2023-07-25T10:18:02.632Z,989.14
2023-07-25T10:19:02.601Z,989.18
2023-07-25T10:20:02.586Z,989.20
2023-07-25T10:21:02.565Z,989.16
2023-07-25T10:22:02.605Z,989.18
2023-07-25T10:23:02.539Z,989.16
2023-07-25T10:24:02.573Z,989.16
2023-07-25T10:25:02.527Z,989.17
2023-07-25T10:26:02.623Z,989.14
2023-07-25T10:27:02.545Z,989.14
2023-07-25T10:28:02.559Z,989.10
2023-07-25T10:29:02.483Z,989.16
2023-07-25T10:30:02.507Z,989.11
2023-07-25T10:31:02.481Z,989.09
2023-07-25T10:32:02.441Z,989.06
2023-07-25T10:33:02.481Z,989.05
2023-07-25T10:34:02.415Z,989.09
2023-07-25T10:35:02.392Z,989.05
2023-07-25T10:36:02.397Z,989.01
2023-07-25T10:37:02.355Z,989.03
2023-07-25T10:38:02.780Z,989.01
2023-07-25T10:39:02.338Z,989.03
2023-07-25T10:40:02.370Z,989.04
2023-07-25T10:41:02.319Z,989.04
2023-07-25T10:42:02.290Z,989.06
2023-07-25T10:43:07.191Z,989.03
2023-07-25T10:44:04.056Z,989.04
2023-07-25T10:45:02.274Z,989.03
2023-07-25T10:46:02.450Z,989.07
2023-07-25T10:47:02.297Z,989.06
2023-07-25T10:48:02.439Z,989.05
2023-07-25T10:49:02.225Z,989.09
2023-07-25T10:50:02.946Z,989.06
2023-07-25T10:51:02.199Z,989.12
2023-07-25T10:52:02.186Z,989.10
2023-07-25T10:53:02.148Z,989.12
2023-07-25T10:54:02.323Z,989.07
2023-07-25T10:55:02.165Z,989.10
2023-07-25T10:56:03.630Z,989.08
2023-07-25T10:57:02.106Z,989.07
2023-07-25T10:58:02.170Z,989.04
2023-07-25T10:59:02.094Z,989.03
2023-07-25T11:00:02.152Z,989.04
2023-07-25T11:01:02.085Z,989.10
2023-07-25T11:02:02.693Z,989.05
2023-07-25T11:03:02.099Z,989.07
2023-07-25T11:04:02.074Z,989.04
2023-07-25T11:05:02.005Z,989.07
2023-07-25T11:06:01.992Z,989.07
2023-07-25T11:07:02.000Z,989.12
2023-07-25T11:08:03.228Z,989.13
2023-07-25T11:09:01.976Z,989.12
2023-07-25T11:10:01.968Z,989.14
2023-07-25T11:11:01.928Z,989.14
2023-07-25T11:12:01.924Z,989.11
2023-07-25T11:13:01.939Z,989.07
2023-07-25T11:14:02.686Z,989.10
2023-07-25T11:15:01.886Z,989.08
2023-07-25T11:16:01.869Z,989.08
2023-07-25T11:17:01.886Z,989.03
2023-07-25T11:18:01.905Z,989.07
2023-07-25T11:19:01.867Z,989.01
2023-07-25T11:20:02.950Z,989.04
2023-07-25T11:21:01.800Z,988.98
2023-07-25T11:22:01.788Z,988.96
2023-07-25T11:23:01.790Z,988.96
2023-07-25T11:24:01.774Z,988.97
2023-07-25T11:25:01.746Z,988.95
2023-07-25T11:26:03.080Z,989.01
2023-07-25T11:27:01.725Z,988.99
2023-07-25T11:28:01.697Z,989.03
2023-07-25T11:29:01.709Z,989.06
2023-07-25T11:30:01.680Z,989.04
2023-07-25T11:31:01.726Z,989.03
2023-07-25T11:32:02.670Z,989.04
2023-07-25T11:33:01.656Z,989.11
2023-07-25T11:34:01.726Z,989.06
2023-07-25T11:35:01.614Z,989.07
2023-07-25T11:36:01.624Z,989.07
2023-07-25T11:37:01.608Z,989.06
2023-07-25T11:38:02.726Z,989.06
2023-07-25T11:39:01.564Z,989.05
2023-07-25T11:40:01.755Z,989.13
2023-07-25T11:41:01.555Z,989.03
2023-07-25T11:42:01.524Z,989.04
2023-07-25T11:43:01.506Z,989.05
2023-07-25T11:44:01.499Z,989.03
2023-07-25T11:45:01.504Z,989.05
2023-07-25T11:46:01.532Z,989.07
2023-07-25T11:47:01.458Z,989.06
2023-07-25T11:48:01.488Z,989.05
2023-07-25T11:49:01.417Z,989.09
2023-07-25T11:50:14.571Z,989.05
2023-07-25T11:51:02.410Z,989.10
2023-07-25T11:52:01.444Z,989.05
2023-07-25T11:53:01.375Z,988.98
2023-07-25T11:54:01.568Z,989.02
2023-07-25T11:55:01.370Z,989.00
2023-07-25T11:56:01.475Z,988.98
2023-07-25T11:57:01.343Z,988.97
2023-07-25T11:58:01.321Z,988.94
2023-07-25T11:59:01.319Z,988.92
2023-07-25T12:00:01.357Z,988.89
2023-07-25T12:01:01.272Z,988.88
2023-07-25T12:02:02.480Z,988.86
2023-07-25T12:03:01.310Z,988.89
2023-07-25T12:04:01.300Z,988.82
2023-07-25T12:05:01.246Z,988.81
2023-07-25T12:06:01.346Z,988.83
2023-07-25T12:07:01.204Z,988.85
2023-07-25T12:08:01.223Z,988.88
2023-07-25T12:09:01.179Z,988.87
2023-07-25T12:10:01.160Z,988.87
2023-07-25T12:11:01.152Z,988.84
2023-07-25T12:12:01.203Z,988.87
2023-07-25T12:13:01.145Z,988.93
2023-07-25T12:14:01.132Z,988.89
2023-07-25T12:15:01.107Z,988.85
2023-07-25T12:16:01.174Z,988.88
2023-07-25T12:17:01.109Z,988.80
2023-07-25T12:18:02.994Z,988.85
2023-07-25T12:19:01.053Z,988.81
2023-07-25T12:20:01.021Z,988.82
2023-07-25T12:21:01.016Z,988.84
2023-07-25T12:22:01.203Z,988.82
2023-07-25T12:23:01.032Z,988.87
2023-07-25T12:24:03.293Z,988.92
2023-07-25T12:25:00.958Z,988.85
2023-07-25T12:26:00.977Z,988.89
2023-07-25T12:27:00.945Z,988.85
2023-07-25T12:28:01.053Z,988.88